createdAt,value
2018-05-27T00:00:03.905Z,99.90
2018-05-27T00:00:26.113Z,98.10
2018-05-27T00:00:47.933Z,95.70
2018-05-27T00:01:09.378Z,99.90
2018-05-27T00:01:32.249Z,95.10
2018-05-27T00:01:54.344Z,95.70
2018-05-27T00:02:15.736Z,99.90
2018-05-27T00:02:37.225Z,98.40
2018-05-27T00:03:00.163Z,98.90
2018-05-27T00:03:22.355Z,98.40
2018-05-27T00:03:45.272Z,97.50
2018-05-27T00:04:07.445Z,94.50
2018-05-27T00:04:29.314Z,99.10
2018-05-27T00:04:51.147Z,98.00
2018-05-27T00:05:12.515Z,99.90
2018-05-27T00:05:34.665Z,96.40
2018-05-27T00:05:56.839Z,96.40
2018-05-27T00:06:18.272Z,99.90
2018-05-27T00:06:40.458Z,96.10
2018-05-27T00:07:02.590Z,94.90
2018-05-27T00:07:25.118Z,94.60
2018-05-27T00:07:47.324Z,97.30
2018-05-27T00:08:09.276Z,97.40
2018-05-27T00:08:55.013Z,94.40
2018-05-27T00:09:17.682Z,94.60
2018-05-27T00:09:39.250Z,99.90
2018-05-27T00:10:01.750Z,95.80
2018-05-27T00:10:23.087Z,98.60
2018-05-27T00:10:45.168Z,96.20
2018-05-27T00:11:06.534Z,99.60
2018-05-27T00:11:28.002Z,96.60
2018-05-27T00:11:50.213Z,94.00
2018-05-27T00:12:12.738Z,93.20
2018-05-27T00:12:34.603Z,96.10
2018-05-27T00:12:57.013Z,93.60
2018-05-27T00:13:18.980Z,98.40
2018-05-27T00:13:40.731Z,93.80
2018-05-27T00:14:02.983Z,94.40
2018-05-27T00:14:55.391Z,97.10
2018-05-27T00:15:17.957Z,93.60
2018-05-27T00:15:39.345Z,99.70
2018-05-27T00:16:23.982Z,98.70
2018-05-27T00:17:09.859Z,95.90
2018-05-27T00:17:32.691Z,95.00
2018-05-27T00:17:54.151Z,97.10
2018-05-27T00:18:39.194Z,96.20
2018-05-27T00:19:00.585Z,99.90
2018-05-27T00:19:22.435Z,98.20
2018-05-27T00:19:44.631Z,99.40
2018-05-27T00:20:06.452Z,97.10
2018-05-27T00:20:28.390Z,98.20
2018-05-27T00:20:49.782Z,99.90
2018-05-27T00:21:57.889Z,94.90
2018-05-27T00:22:19.721Z,98.70
2018-05-27T00:22:41.127Z,98.50
2018-05-27T00:23:02.889Z,96.10
2018-05-27T00:23:25.053Z,96.50
2018-05-27T00:23:48.065Z,94.60
2018-05-27T00:24:33.079Z,95.90
2018-05-27T00:25:18.367Z,95.30
2018-05-27T00:25:40.942Z,95.40
2018-05-27T00:26:02.800Z,95.40
2018-05-27T00:26:24.264Z,99.60
2018-05-27T00:26:45.796Z,99.50
2018-05-27T00:27:08.384Z,94.30
2018-05-27T00:27:29.864Z,99.90
2018-05-27T00:27:52.370Z,99.00
2018-05-27T00:28:14.414Z,99.40
2018-05-27T00:28:36.465Z,99.40
2018-05-27T00:28:57.802Z,99.90
2018-05-27T00:29:43.360Z,99.40
2018-05-27T00:30:04.779Z,98.70
2018-05-27T00:30:26.563Z,99.50
2018-05-27T00:31:11.928Z,99.30
2018-05-27T00:31:34.091Z,99.50
2018-05-27T00:32:19.084Z,99.70
2018-05-27T00:32:41.064Z,99.70
2018-05-27T00:33:03.983Z,99.90
2018-05-27T00:33:48.966Z,99.50
2018-05-27T00:34:11.119Z,99.90
2018-05-27T00:34:32.574Z,99.90
2018-05-27T00:35:45.713Z,99.90
2018-05-27T00:36:54.271Z,99.90
2018-05-27T00:38:02.283Z,99.20
2018-05-27T00:38:24.079Z,99.20
2018-05-27T00:38:45.888Z,99.90
2018-05-27T00:39:31.751Z,98.50
2018-05-27T00:39:54.000Z,99.40
2018-05-27T00:40:38.535Z,99.90
2018-05-27T00:40:59.854Z,99.90
2018-05-27T00:42:07.304Z,99.90
2018-05-27T00:42:51.713Z,99.90
2018-05-27T00:43:13.039Z,98.40
2018-05-27T00:43:35.889Z,99.90
2018-05-27T00:44:20.471Z,99.70
2018-05-27T00:44:41.953Z,99.90
2018-05-27T00:45:04.117Z,99.70
2018-05-27T00:45:25.569Z,99.90
2018-05-27T00:46:09.932Z,98.10
2018-05-27T00:46:31.372Z,99.90
2018-05-27T00:46:52.785Z,99.90
2018-05-27T00:47:14.156Z,99.10
2018-05-27T00:47:36.370Z,97.00
2018-05-27T00:47:59.381Z,95.20
2018-05-27T00:48:20.814Z,99.90
2018-05-27T00:48:43.288Z,95.70
2018-05-27T00:49:04.997Z,98.50
2018-05-27T00:49:26.683Z,95.60
2018-05-27T00:49:48.079Z,99.90
2018-05-27T00:50:10.866Z,94.90
2018-05-27T00:50:32.626Z,95.10
2018-05-27T00:50:55.668Z,98.00
2018-05-27T00:51:18.201Z,97.00
2018-05-27T00:51:39.699Z,99.90
2018-05-27T00:52:01.004Z,98.70
2018-05-27T00:52:22.279Z,99.90
2018-05-27T00:52:45.079Z,94.80
2018-05-27T00:53:06.920Z,98.40
2018-05-27T00:53:48.033Z,99.30
2018-05-27T00:54:10.230Z,95.30
2018-05-27T00:54:31.885Z,99.10
2018-05-27T00:54:53.623Z,95.10
2018-05-27T00:55:16.048Z,97.80
2018-05-27T00:55:37.759Z,99.80
2018-05-27T00:56:45.577Z,98.20
2018-05-27T00:57:08.351Z,96.20
2018-05-27T00:57:29.728Z,99.90
2018-05-27T00:57:52.160Z,96.10
2018-05-27T00:58:14.968Z,96.60
2018-05-27T00:58:36.700Z,96.30
2018-05-27T00:58:57.989Z,99.90
2018-05-27T00:59:19.279Z,99.90
2018-05-27T01:00:27.356Z,96.50
2018-05-27T01:00:49.057Z,96.70
2018-05-27T01:01:33.388Z,99.90
2018-05-27T01:01:54.675Z,99.90
2018-05-27T01:02:15.970Z,99.80
2018-05-27T01:02:37.262Z,99.80
2018-05-27T01:02:58.536Z,99.40
2018-05-27T01:03:19.833Z,99.90
2018-05-27T01:03:41.898Z,98.80
2018-05-27T01:04:03.596Z,95.10
2018-05-27T01:04:25.646Z,97.10
2018-05-27T01:04:46.973Z,98.80
2018-05-27T01:05:31.771Z,95.00
2018-05-27T01:05:53.073Z,98.90
2018-05-27T01:06:14.412Z,99.90
2018-05-27T01:06:36.878Z,96.70
2018-05-27T01:06:58.152Z,99.90
2018-05-27T01:07:19.616Z,99.90
2018-05-27T01:09:06.228Z,99.90
2018-05-27T01:09:27.641Z,99.90
2018-05-27T01:09:49.820Z,95.40
2018-05-27T01:10:35.449Z,94.70
2018-05-27T01:11:43.373Z,94.10
2018-05-27T01:12:05.039Z,94.20
2018-05-27T01:12:27.099Z,94.60
2018-05-27T01:12:49.201Z,97.60
2018-05-27T01:13:10.555Z,99.90
2018-05-27T01:13:31.973Z,98.10
2018-05-27T01:13:53.423Z,99.90
2018-05-27T01:14:15.639Z,94.70
2018-05-27T01:14:37.037Z,99.90
2018-05-27T01:14:59.168Z,94.60
2018-05-27T01:15:44.403Z,99.20
2018-05-27T01:16:06.213Z,95.70
2018-05-27T01:16:28.331Z,95.30
2018-05-27T01:16:50.522Z,97.20
2018-05-27T01:17:11.931Z,99.90
2018-05-27T01:17:33.282Z,99.90
2018-05-27T01:17:55.513Z,95.20
2018-05-27T01:18:17.729Z,96.20
2018-05-27T01:18:39.209Z,99.90
2018-05-27T01:19:01.085Z,94.40
2018-05-27T01:19:23.665Z,94.70
2018-05-27T01:19:45.015Z,98.80
2018-05-27T01:20:07.189Z,94.50
2018-05-27T01:20:29.384Z,95.10
2018-05-27T01:20:51.461Z,94.20
2018-05-27T01:21:12.792Z,99.90
2018-05-27T01:21:34.550Z,96.00
2018-05-27T01:21:56.388Z,95.70
2018-05-27T01:22:17.841Z,99.60
2018-05-27T01:22:39.233Z,96.80
2018-05-27T01:23:00.678Z,99.90
2018-05-27T01:23:23.557Z,94.20
2018-05-27T01:24:08.549Z,94.80
2018-05-27T01:24:30.423Z,95.10
2018-05-27T01:24:52.552Z,96.90
2018-05-27T01:25:14.007Z,99.90
2018-05-27T01:25:35.398Z,99.90
2018-05-27T01:26:19.957Z,99.70
2018-05-27T01:27:28.856Z,96.20
2018-05-27T01:27:50.738Z,97.70
2018-05-27T01:28:12.217Z,99.90
2018-05-27T01:28:33.690Z,98.70
2018-05-27T01:29:50.687Z,94.90
2018-05-27T01:30:35.861Z,99.90
2018-05-27T01:30:57.165Z,99.90
2018-05-27T01:31:18.463Z,99.90
2018-05-27T01:31:39.736Z,99.90
2018-05-27T01:32:01.772Z,95.20
2018-05-27T01:32:24.144Z,99.90
2018-05-27T01:32:46.225Z,98.40
2018-05-27T01:33:07.581Z,99.90
2018-05-27T01:33:29.625Z,96.60
2018-05-27T01:33:52.026Z,96.60
2018-05-27T01:34:36.559Z,97.80
2018-05-27T01:34:59.182Z,96.50
2018-05-27T01:35:21.314Z,95.20
2018-05-27T01:35:42.760Z,99.90
2018-05-27T01:36:28.864Z,99.30
2018-05-27T01:38:00.553Z,97.10
2018-05-27T01:38:23.058Z,96.80
2018-05-27T01:38:44.783Z,95.30
2018-05-27T01:39:06.524Z,96.90
2018-05-27T01:39:27.993Z,99.90
2018-05-27T01:39:49.441Z,99.90
2018-05-27T01:40:11.603Z,94.60
2018-05-27T01:40:33.019Z,99.90
2018-05-27T01:40:56.008Z,97.80
2018-05-27T01:41:42.528Z,94.50
2018-05-27T01:42:28.399Z,99.50
2018-05-27T01:42:50.492Z,94.50
2018-05-27T01:43:11.963Z,98.90
2018-05-27T01:43:34.125Z,94.40
2018-05-27T01:43:56.603Z,95.80
2018-05-27T01:44:41.439Z,95.90
2018-05-27T01:45:02.733Z,99.90
2018-05-27T01:45:24.771Z,94.70
2018-05-27T01:45:46.067Z,99.90
2018-05-27T01:46:08.084Z,99.90
2018-05-27T01:46:30.145Z,99.40
2018-05-27T01:46:51.852Z,96.00
2018-05-27T01:47:14.274Z,95.00
2018-05-27T01:47:36.285Z,95.30
2018-05-27T01:47:57.590Z,99.90
2018-05-27T01:48:20.006Z,99.40
2018-05-27T01:48:41.308Z,99.90
2018-05-27T01:49:02.683Z,98.00
2018-05-27T01:49:24.371Z,98.60
2018-05-27T01:49:47.217Z,98.00
2018-05-27T01:50:10.023Z,96.50
2018-05-27T01:51:18.555Z,97.10
2018-05-27T01:51:40.597Z,96.10
2018-05-27T01:52:01.972Z,99.90
2018-05-27T01:52:24.043Z,96.00
2018-05-27T01:53:08.468Z,99.90
2018-05-27T01:53:31.318Z,96.40
2018-05-27T01:53:53.374Z,96.10
2018-05-27T01:54:38.197Z,96.40
2018-05-27T01:55:00.346Z,95.70
2018-05-27T01:55:21.643Z,99.90
2018-05-27T01:55:43.689Z,95.60
2018-05-27T01:56:06.232Z,96.50
2018-05-27T01:56:50.918Z,99.40
2018-05-27T01:57:40.073Z,98.20
2018-05-27T01:58:01.818Z,97.40
2018-05-27T01:58:23.931Z,95.70
2018-05-27T01:58:46.359Z,95.00
2018-05-27T01:59:08.412Z,95.00
2018-05-27T01:59:30.894Z,96.20
2018-05-27T01:59:52.936Z,96.30
2018-05-27T02:00:14.254Z,99.90
2018-05-27T02:00:35.693Z,99.50
2018-05-27T02:00:57.144Z,98.60
2018-05-27T02:01:42.838Z,95.20
2018-05-27T02:02:05.768Z,95.20
2018-05-27T02:02:50.279Z,99.90
2018-05-27T02:03:11.685Z,99.90
2018-05-27T02:03:33.168Z,99.90
2018-05-27T02:03:55.375Z,97.80
2018-05-27T02:05:03.413Z,95.20
2018-05-27T02:05:48.895Z,96.50
2018-05-27T02:06:10.655Z,99.90
2018-05-27T02:06:32.402Z,95.40
2018-05-27T02:06:54.940Z,98.70
2018-05-27T02:08:02.929Z,98.40
2018-05-27T02:08:24.391Z,99.90
2018-05-27T02:09:09.487Z,98.60
2018-05-27T02:09:54.119Z,99.90
2018-05-27T02:10:15.589Z,99.90
2018-05-27T02:11:24.568Z,97.40
2018-05-27T02:11:45.932Z,98.30
2018-05-27T02:12:55.004Z,95.50
2018-05-27T02:13:39.677Z,98.00
2018-05-27T02:14:01.832Z,95.50
2018-05-27T02:14:23.378Z,99.90
2018-05-27T02:14:45.570Z,95.20
2018-05-27T02:15:07.747Z,96.60
2018-05-27T02:15:30.249Z,95.80
2018-05-27T02:15:52.575Z,95.90
2018-05-27T02:16:15.229Z,95.20
2018-05-27T02:17:01.156Z,99.50
2018-05-27T02:17:22.480Z,99.90
2018-05-27T02:17:44.236Z,97.00
2018-05-27T02:18:06.312Z,96.10
2018-05-27T02:18:51.184Z,97.80
2018-05-27T02:19:13.347Z,95.50
2018-05-27T02:19:35.490Z,97.30
2018-05-27T02:19:57.962Z,99.90
2018-05-27T02:20:19.358Z,99.90
2018-05-27T02:21:27.442Z,97.60
2018-05-27T02:21:49.663Z,99.90
2018-05-27T02:22:11.910Z,97.00
2018-05-27T02:22:56.669Z,99.00
2018-05-27T02:23:18.867Z,98.40
2018-05-27T02:24:26.317Z,99.90
2018-05-27T02:24:48.068Z,96.00
2018-05-27T02:25:10.533Z,99.90
2018-05-27T02:25:32.574Z,96.10
2018-05-27T02:25:53.850Z,99.90
2018-05-27T02:26:15.524Z,96.10
2018-05-27T02:26:59.886Z,99.90
2018-05-27T02:27:22.684Z,99.00
2018-05-27T02:27:44.430Z,95.90
2018-05-27T02:28:29.244Z,98.40
2018-05-27T02:28:51.326Z,96.30
2018-05-27T02:29:13.751Z,95.80
2018-05-27T02:29:36.208Z,97.00
2018-05-27T02:29:57.931Z,99.00
2018-05-27T02:30:19.296Z,99.90
2018-05-27T02:30:40.626Z,99.40
2018-05-27T02:31:02.001Z,99.50
2018-05-27T02:31:23.691Z,96.90
2018-05-27T02:31:45.375Z,95.70
2018-05-27T02:32:30.206Z,96.90
2018-05-27T02:32:51.650Z,99.10
2018-05-27T02:33:13.541Z,95.20
2018-05-27T02:33:34.941Z,99.90
2018-05-27T02:33:57.481Z,95.50
2018-05-27T02:34:19.634Z,99.50
2018-05-27T02:35:04.216Z,99.90
2018-05-27T02:35:25.726Z,99.90
2018-05-27T02:36:11.250Z,96.50
2018-05-27T02:36:55.938Z,99.90
2018-05-27T02:37:18.840Z,97.90
2018-05-27T02:37:40.580Z,99.70
2018-05-27T02:38:25.051Z,99.00
2018-05-27T02:38:47.117Z,97.40
2018-05-27T02:39:54.578Z,99.90
2018-05-27T02:40:16.337Z,99.90
2018-05-27T02:40:37.771Z,99.90
2018-05-27T02:40:59.931Z,99.90
2018-05-27T02:41:21.325Z,99.90
2018-05-27T02:42:30.432Z,95.50
2018-05-27T02:42:52.966Z,96.70
2018-05-27T02:43:15.144Z,95.50
2018-05-27T02:43:37.252Z,97.00
2018-05-27T02:44:23.039Z,98.00
2018-05-27T02:44:45.331Z,98.90
2018-05-27T02:45:06.780Z,99.90
2018-05-27T02:45:51.224Z,99.90
2018-05-27T02:46:35.976Z,97.90
2018-05-27T02:46:57.770Z,99.80
2018-05-27T02:47:19.599Z,96.90
2018-05-27T02:47:40.990Z,99.90
2018-05-27T02:48:03.267Z,95.90
2018-05-27T02:48:25.007Z,98.90
2018-05-27T02:48:47.151Z,98.00
2018-05-27T02:49:32.469Z,96.50
2018-05-27T02:49:53.891Z,99.90
2018-05-27T02:50:15.333Z,99.90
2018-05-27T02:50:37.508Z,96.30
2018-05-27T02:51:46.093Z,96.30
2018-05-27T02:52:08.510Z,96.30
2018-05-27T02:52:30.606Z,96.10
2018-05-27T02:52:53.360Z,97.40
2018-05-27T02:53:15.368Z,97.40
2018-05-27T02:53:37.787Z,96.70
2018-05-27T02:53:59.098Z,99.90
2018-05-27T02:54:21.150Z,99.90
2018-05-27T02:54:43.244Z,95.60
2018-05-27T02:55:05.282Z,96.30
2018-05-27T02:55:49.664Z,98.10
2018-05-27T02:56:10.973Z,99.90
2018-05-27T02:56:33.406Z,98.90
2018-05-27T02:56:55.856Z,95.50
2018-05-27T02:57:17.557Z,96.70
2018-05-27T02:57:39.216Z,95.40
2018-05-27T02:58:00.515Z,99.60
2018-05-27T02:59:30.967Z,97.80
2018-05-27T02:59:53.246Z,95.30
2018-05-27T03:00:16.126Z,95.80
2018-05-27T03:01:01.448Z,95.30
2018-05-27T03:01:46.847Z,95.30
2018-05-27T03:02:09.002Z,95.30
2018-05-27T03:02:54.394Z,95.70
2018-05-27T03:04:02.385Z,97.10
2018-05-27T03:04:24.987Z,95.80
2018-05-27T03:04:47.185Z,97.10
2018-05-27T03:05:08.614Z,99.90
2018-05-27T03:06:16.794Z,96.90
2018-05-27T03:07:24.960Z,95.70
2018-05-27T03:07:46.318Z,99.90
2018-05-27T03:08:08.443Z,95.90
2018-05-27T03:08:31.060Z,97.10
2018-05-27T03:08:53.196Z,95.80
2018-05-27T03:09:15.357Z,98.20
2018-05-27T03:09:36.755Z,99.10
2018-05-27T03:09:58.093Z,99.90
2018-05-27T03:10:19.461Z,99.90
2018-05-27T03:10:41.701Z,97.60
2018-05-27T03:11:03.185Z,99.90
2018-05-27T03:12:34.805Z,95.40
2018-05-27T03:12:57.595Z,97.60
2018-05-27T03:13:19.682Z,95.80
2018-05-27T03:13:41.730Z,95.80
2018-05-27T03:14:03.108Z,99.90
2018-05-27T03:14:25.543Z,95.80
2018-05-27T03:14:46.817Z,99.90
2018-05-27T03:15:08.945Z,95.70
2018-05-27T03:15:31.356Z,95.60
2018-05-27T03:16:39.488Z,95.50
2018-05-27T03:17:24.993Z,95.40
2018-05-27T03:17:47.549Z,96.70
2018-05-27T03:18:09.674Z,95.90
2018-05-27T03:18:31.624Z,99.90
2018-05-27T03:18:53.439Z,95.20
2018-05-27T03:19:15.528Z,96.40
2018-05-27T03:19:37.951Z,96.40
2018-05-27T03:19:59.623Z,95.60
2018-05-27T03:20:44.386Z,98.30
2018-05-27T03:21:07.276Z,98.90
2018-05-27T03:21:29.893Z,97.30
2018-05-27T03:21:51.300Z,99.90
2018-05-27T03:22:12.761Z,99.90
2018-05-27T03:22:34.513Z,99.40
2018-05-27T03:22:55.864Z,99.50
2018-05-27T03:23:18.602Z,96.20
2018-05-27T03:24:03.679Z,94.90
2018-05-27T03:24:26.153Z,95.70
2018-05-27T03:24:47.444Z,97.20
2018-05-27T03:25:08.811Z,99.90
2018-05-27T03:25:53.741Z,96.90
2018-05-27T03:26:15.216Z,99.90
2018-05-27T03:26:37.395Z,96.20
2018-05-27T03:26:59.544Z,94.90
2018-05-27T03:27:21.356Z,98.00
2018-05-27T03:27:43.499Z,96.90
2018-05-27T03:28:04.989Z,99.90
2018-05-27T03:28:26.410Z,99.90
2018-05-27T03:29:11.196Z,99.90
2018-05-27T03:29:32.885Z,95.70
2018-05-27T03:29:54.208Z,99.90
2018-05-27T03:30:39.815Z,97.30
2018-05-27T03:31:02.371Z,96.40
2018-05-27T03:31:24.182Z,98.80
2018-05-27T03:32:33.355Z,96.60
2018-05-27T03:32:54.745Z,99.90
2018-05-27T03:33:16.575Z,96.60
2018-05-27T03:33:38.437Z,99.90
2018-05-27T03:34:00.245Z,99.80
2018-05-27T03:34:22.764Z,96.40
2018-05-27T03:34:44.592Z,98.60
2018-05-27T03:35:07.081Z,97.30
2018-05-27T03:35:52.368Z,98.60
2018-05-27T03:36:14.612Z,96.10
2018-05-27T03:36:36.131Z,99.90
2018-05-27T03:36:58.316Z,95.40
2018-05-27T03:37:44.326Z,97.40
2018-05-27T03:38:06.226Z,96.10
2018-05-27T03:38:27.599Z,99.90
2018-05-27T03:38:49.777Z,96.40
2018-05-27T03:39:12.052Z,95.50
2018-05-27T03:39:33.592Z,99.20
2018-05-27T03:39:55.046Z,99.90
2018-05-27T03:40:18.006Z,98.50
2018-05-27T03:40:39.969Z,98.40
2018-05-27T03:42:11.231Z,93.70
2018-05-27T03:42:33.464Z,94.40
2018-05-27T03:42:55.540Z,94.50
2018-05-27T03:43:17.375Z,98.00
2018-05-27T03:43:38.809Z,99.00
2018-05-27T03:44:00.996Z,93.00
2018-05-27T03:44:45.572Z,98.90
2018-05-27T03:45:30.620Z,94.00
2018-05-27T03:46:39.460Z,98.30
2018-05-27T03:48:11.693Z,95.80
2018-05-27T03:48:56.756Z,97.20
2018-05-27T03:49:41.506Z,96.50
2018-05-27T03:50:26.804Z,96.50
2018-05-27T03:50:49.305Z,95.60
2018-05-27T03:51:11.829Z,98.20
2018-05-27T03:52:58.334Z,94.90
2018-05-27T03:53:19.707Z,99.50
2018-05-27T03:54:32.751Z,96.40
2018-05-27T03:55:46.445Z,98.90
2018-05-27T03:56:09.517Z,95.10
2018-05-27T03:56:30.994Z,99.10
2018-05-27T03:56:52.447Z,99.10
2018-05-27T03:57:14.282Z,97.40
2018-05-27T03:57:58.863Z,99.00
2018-05-27T03:58:21.022Z,94.30
2018-05-27T03:58:42.845Z,95.90
2018-05-27T04:00:04.642Z,98.50
2018-05-27T04:00:26.079Z,98.70
2018-05-27T04:00:47.580Z,98.60
2018-05-27T04:01:32.179Z,98.30
2018-05-27T04:02:49.720Z,95.90
2018-05-27T04:03:11.037Z,95.10
2018-05-27T04:03:32.714Z,93.20
2018-05-27T04:04:58.519Z,92.70
2018-05-27T04:05:39.040Z,94.90
2018-05-27T04:06:54.636Z,93.30
2018-05-27T04:07:34.990Z,92.30
2018-05-27T04:08:14.721Z,96.90
2018-05-27T04:08:36.760Z,96.00
2018-05-27T04:08:58.081Z,96.50
2018-05-27T04:09:20.153Z,94.90
2018-05-27T04:09:42.631Z,91.80
2018-05-27T04:10:27.630Z,90.20
2018-05-27T04:10:50.407Z,91.20
2018-05-27T04:11:12.124Z,89.70
2018-05-27T04:11:33.407Z,95.10
2018-05-27T04:11:55.448Z,90.10
2018-05-27T04:12:17.936Z,90.90
2018-05-27T04:12:40.015Z,92.60
2018-05-27T04:13:01.403Z,92.00
2018-05-27T04:13:22.777Z,93.10
2018-05-27T04:13:44.105Z,94.90
2018-05-27T04:14:05.847Z,93.80
2018-05-27T04:14:27.294Z,94.70
2018-05-27T04:14:48.637Z,91.70
2018-05-27T04:15:11.507Z,88.70
2018-05-27T04:15:33.218Z,91.00
2018-05-27T04:15:54.888Z,91.00
2018-05-27T04:16:16.305Z,91.70
2018-05-27T04:16:37.595Z,92.10
2018-05-27T04:16:59.620Z,84.60
2018-05-27T04:17:21.637Z,84.30
2018-05-27T04:17:44.039Z,86.90
2018-05-27T04:18:05.366Z,93.00
2018-05-27T04:18:27.506Z,86.20
2018-05-27T04:18:48.877Z,92.20
2018-05-27T04:19:11.786Z,89.50
2018-05-27T04:19:33.657Z,86.60
2018-05-27T04:19:55.097Z,91.70
2018-05-27T04:20:16.954Z,89.30
2018-05-27T04:20:38.402Z,91.20
2018-05-27T04:21:00.628Z,81.30
2018-05-27T04:21:23.193Z,78.60
2018-05-27T04:21:44.594Z,90.40
2018-05-27T04:22:05.990Z,90.00
2018-05-27T04:22:27.534Z,89.20
2018-05-27T04:22:49.087Z,87.40
2018-05-27T04:23:11.616Z,80.50
2018-05-27T04:23:32.994Z,87.50
2018-05-27T04:23:54.753Z,77.70
2018-05-27T04:24:16.202Z,86.50
2018-05-27T04:24:38.361Z,77.70
2018-05-27T04:25:00.967Z,77.90
2018-05-27T04:25:22.771Z,84.60
2018-05-27T04:25:44.963Z,81.90
2018-05-27T04:26:06.324Z,85.80
2018-05-27T04:26:27.722Z,85.00
2018-05-27T04:26:49.938Z,79.20
2018-05-27T04:27:11.756Z,73.30
2018-05-27T04:27:33.160Z,85.60
2018-05-27T04:27:55.329Z,75.80
2018-05-27T04:28:17.912Z,80.70
2018-05-27T04:29:03.519Z,77.60
2018-05-27T04:29:25.279Z,83.90
2018-05-27T04:29:47.040Z,81.10
2018-05-27T04:30:08.677Z,86.90
2018-05-27T04:30:31.614Z,77.90
2018-05-27T04:30:53.476Z,78.80
2018-05-27T04:31:14.880Z,85.50
2018-05-27T04:31:36.339Z,84.90
2018-05-27T04:31:57.679Z,84.90
2018-05-27T04:32:18.967Z,83.90
2018-05-27T04:32:40.313Z,79.10
2018-05-27T04:33:02.793Z,77.20
2018-05-27T04:33:24.167Z,80.90
2018-05-27T04:33:45.660Z,83.60
2018-05-27T04:34:30.162Z,83.70
2018-05-27T04:34:52.321Z,73.50
2018-05-27T04:35:14.425Z,77.70
2018-05-27T04:35:36.619Z,71.60
2018-05-27T04:35:58.477Z,71.30
2018-05-27T04:36:20.622Z,75.80
2018-05-27T04:36:42.462Z,75.30
2018-05-27T04:37:03.966Z,81.80
2018-05-27T04:37:25.516Z,81.90
2018-05-27T04:37:48.043Z,80.40
2018-05-27T04:38:10.313Z,71.50
2018-05-27T04:38:31.769Z,81.30
2018-05-27T04:38:54.695Z,71.30
2018-05-27T04:39:39.328Z,74.30
2018-05-27T04:40:00.696Z,79.80
2018-05-27T04:40:22.114Z,78.40
2018-05-27T04:40:43.631Z,78.10
2018-05-27T04:41:05.090Z,77.90
2018-05-27T04:41:27.916Z,69.60
2018-05-27T04:41:49.320Z,77.30
2018-05-27T04:42:10.815Z,77.30
2018-05-27T04:42:55.394Z,77.00
2018-05-27T04:43:16.845Z,77.40
2018-05-27T04:43:38.299Z,78.00
2018-05-27T04:43:59.727Z,77.70
2018-05-27T04:44:21.923Z,70.00
2018-05-27T04:44:43.359Z,78.70
2018-05-27T04:45:04.735Z,79.20
2018-05-27T04:45:26.188Z,79.60
2018-05-27T04:45:48.293Z,68.80
2018-05-27T04:46:10.519Z,74.20
2018-05-27T04:46:33.062Z,75.20
2018-05-27T04:46:54.740Z,81.40
2018-05-27T04:47:16.581Z,72.90
2018-05-27T04:47:38.002Z,83.00
2018-05-27T04:47:59.381Z,83.70
2018-05-27T04:48:21.993Z,76.60
2018-05-27T04:48:44.256Z,76.30
2018-05-27T04:49:06.042Z,77.10
2018-05-27T04:49:27.717Z,85.80
2018-05-27T04:49:49.072Z,86.60
2018-05-27T04:50:11.109Z,77.30
2018-05-27T04:50:33.248Z,76.00
2018-05-27T04:50:54.895Z,83.10
2018-05-27T04:51:16.189Z,87.60
2018-05-27T04:51:37.473Z,88.60
2018-05-27T04:52:21.869Z,87.80
2018-05-27T04:52:43.560Z,85.50
2018-05-27T04:53:04.924Z,90.00
2018-05-27T04:53:26.595Z,78.90
2018-05-27T04:53:49.384Z,82.70
2018-05-27T04:54:11.403Z,79.30
2018-05-27T04:54:32.714Z,90.70
2018-05-27T04:54:54.726Z,80.20
2018-05-27T04:55:16.049Z,90.90
2018-05-27T04:55:38.051Z,83.20
2018-05-27T04:56:00.446Z,82.30
2018-05-27T04:56:22.489Z,87.40
2018-05-27T04:56:43.883Z,90.90
2018-05-27T04:57:05.180Z,91.10
2018-05-27T04:57:26.824Z,86.70
2018-05-27T04:57:48.103Z,91.80
2018-05-27T04:58:32.474Z,91.90
2018-05-27T04:58:54.495Z,84.70
2018-05-27T04:59:16.520Z,85.00
2018-05-27T04:59:37.862Z,92.20
2018-05-27T04:59:59.168Z,92.20
2018-05-27T05:00:20.540Z,92.00
2018-05-27T05:00:42.556Z,87.80
2018-05-27T05:01:04.587Z,91.80
2018-05-27T05:01:25.923Z,92.30
2018-05-27T05:01:47.214Z,92.40
2018-05-27T05:02:08.475Z,92.50
2018-05-27T05:02:31.238Z,83.60
2018-05-27T05:02:52.524Z,92.30
2018-05-27T05:03:14.688Z,83.50
2018-05-27T05:03:36.056Z,90.80
2018-05-27T05:03:57.763Z,85.60
2018-05-27T05:04:19.078Z,92.10
2018-05-27T05:04:41.192Z,84.60
2018-05-27T05:05:03.233Z,82.90
2018-05-27T05:05:24.566Z,92.00
2018-05-27T05:06:10.008Z,82.70
2018-05-27T05:06:31.292Z,89.70
2018-05-27T05:06:53.307Z,85.20
2018-05-27T05:07:14.709Z,92.10
2018-05-27T05:07:36.057Z,92.10
2018-05-27T05:07:58.297Z,89.40
2018-05-27T05:08:19.610Z,92.30
2018-05-27T05:08:41.354Z,83.70
2018-05-27T05:09:02.901Z,92.40
2018-05-27T05:09:24.327Z,92.50
2018-05-27T05:09:46.739Z,86.60
2018-05-27T05:10:08.443Z,92.70
2018-05-27T05:10:29.848Z,92.60
2018-05-27T05:10:51.173Z,93.00
2018-05-27T05:11:12.500Z,92.80
2018-05-27T05:11:33.880Z,93.00
2018-05-27T05:11:56.057Z,85.00
2018-05-27T05:12:17.816Z,91.90
2018-05-27T05:12:40.746Z,87.80
2018-05-27T05:13:26.417Z,85.30
2018-05-27T05:13:48.959Z,90.60
2018-05-27T05:14:11.135Z,89.80
2018-05-27T05:14:33.301Z,85.10
2018-05-27T05:14:55.553Z,89.30
2018-05-27T05:15:16.834Z,93.10
2018-05-27T05:16:02.283Z,85.30
2018-05-27T05:16:23.598Z,93.30
2018-05-27T05:16:45.692Z,85.30
2018-05-27T05:17:07.888Z,90.00
2018-05-27T05:17:29.601Z,88.70
2018-05-27T05:17:50.949Z,93.20
2018-05-27T05:18:13.013Z,87.30
2018-05-27T05:18:35.450Z,91.90
2018-05-27T05:18:57.851Z,91.30
2018-05-27T05:19:19.153Z,92.80
2018-05-27T05:20:03.997Z,91.90
2018-05-27T05:20:25.471Z,92.60
2018-05-27T05:20:47.225Z,86.70
2018-05-27T05:21:08.634Z,92.40
2018-05-27T05:21:30.106Z,92.20
2018-05-27T05:21:51.606Z,92.20
2018-05-27T05:22:13.078Z,92.40
2018-05-27T05:22:34.496Z,92.20
2018-05-27T05:22:55.874Z,91.00
2018-05-27T05:23:18.080Z,89.90
2018-05-27T05:23:39.491Z,91.60
2018-05-27T05:24:00.956Z,91.50
2018-05-27T05:24:23.134Z,84.00
2018-05-27T05:24:44.465Z,91.40
2018-05-27T05:25:06.545Z,88.70
2018-05-27T05:25:27.845Z,86.80
2018-05-27T05:25:49.916Z,83.50
2018-05-27T05:26:11.225Z,91.10
2018-05-27T05:26:32.645Z,91.20
2018-05-27T05:26:53.952Z,91.10
2018-05-27T05:27:15.273Z,91.00
2018-05-27T05:27:37.360Z,81.30
2018-05-27T05:27:58.700Z,90.80
2018-05-27T05:28:20.814Z,86.40
2018-05-27T05:28:42.876Z,90.10
2018-05-27T05:29:04.195Z,90.60
2018-05-27T05:29:25.512Z,90.50
2018-05-27T05:29:46.785Z,85.20
2018-05-27T05:30:08.139Z,90.20
2018-05-27T05:30:52.468Z,90.00
2018-05-27T05:31:13.787Z,89.50
2018-05-27T05:31:35.068Z,85.10
2018-05-27T05:31:57.158Z,80.20
2018-05-27T05:32:18.497Z,89.20
2018-05-27T05:32:39.773Z,89.00
2018-05-27T05:33:01.064Z,89.00
2018-05-27T05:33:22.346Z,88.80
2018-05-27T05:33:44.371Z,82.70
2018-05-27T05:34:05.634Z,87.80
2018-05-27T05:34:26.902Z,87.30
2018-05-27T05:34:48.968Z,77.80
2018-05-27T05:35:10.360Z,85.60
2018-05-27T05:35:32.452Z,80.50
2018-05-27T05:35:53.792Z,85.00
2018-05-27T05:36:15.966Z,80.10
2018-05-27T05:36:37.727Z,76.90
2018-05-27T05:36:59.090Z,81.60
2018-05-27T05:37:21.130Z,70.10
2018-05-27T05:37:42.404Z,81.60
2018-05-27T05:38:03.813Z,81.90
2018-05-27T05:38:25.839Z,73.00
2018-05-27T05:38:47.861Z,78.50
2018-05-27T05:39:09.157Z,82.90
2018-05-27T05:39:30.846Z,73.50
2018-05-27T05:39:52.278Z,83.70
2018-05-27T05:40:13.748Z,83.80
2018-05-27T05:40:35.813Z,74.80
2018-05-27T05:41:20.121Z,84.90
2018-05-27T05:41:42.544Z,72.90
2018-05-27T05:42:03.839Z,85.20
2018-05-27T05:42:25.165Z,86.20
2018-05-27T05:42:46.445Z,86.70
2018-05-27T05:43:07.770Z,86.10
2018-05-27T05:43:29.180Z,87.40
2018-05-27T05:43:50.445Z,88.20
2018-05-27T05:44:11.771Z,88.40
2018-05-27T05:44:33.067Z,89.40
2018-05-27T05:44:54.437Z,90.00
2018-05-27T05:45:15.851Z,90.00
2018-05-27T05:45:37.945Z,82.70
2018-05-27T05:45:59.243Z,90.10
2018-05-27T05:46:20.515Z,90.70
2018-05-27T05:46:41.764Z,90.80
2018-05-27T05:47:03.865Z,87.30
2018-05-27T05:47:25.501Z,85.00
2018-05-27T05:47:46.831Z,91.90
2018-05-27T05:48:08.532Z,89.50
2018-05-27T05:48:30.568Z,86.40
2018-05-27T05:48:52.627Z,84.20
2018-05-27T05:49:13.937Z,92.30
2018-05-27T05:49:36.359Z,91.30